Dalmeny, Canada
Current Conditions -  °F | °C
As of 8:00 PM on Sunday 21 Dec 2014 (Local Time) from CYXE Reporting Station
Light Snow Light Snow  
Wind Chill: -9°   Ceiling: 400
Heat Index: -4°   Visibility: 8mi
Dew Point: -5°   Wind: 8mph
Humidity: 93%   Direction: 40°NE
Pressure: 29.5"   Gusts: NA
Location:  52.33°N, 106.78°W
Report Text: CYXE 220200Z 04007KT 8SM -SN OVC004 M04/M05 A2950 RMK ST8 SLP020
Loading
Personal Weather Stations






























Interactive Weather Map New forecast layout! Learn more

10-Day Weather Forecast

Advertisements
Track Severe Weather on mobile